Time;durP1;ratioP1;P1;durP2;ratioP2;P2;SDS_P1;SDS_P2;PMS_P1;PMS_P2;Temp;Humidity;BMP_temperature;BMP_pressure;BME280_temperature;BME280_humidity;BME280_pressure;Samples;Min_cycle;Max_cycle;Signal;HPM_P1;HPM_P2
2021/12/03 00:00:12;;;;;;;10.38;2.42;;;0.10;99.90;;;;;;5050344;28;20415;-77
2021/12/03 00:02:38;;;;;;;5.22;2.35;;;0.10;99.90;;;;;;5041710;28;20105;-77
2021/12/03 00:05:04;;;;;;;3.95;2.28;;;0.10;99.90;;;;;;5063387;28;20033;-77
2021/12/03 00:07:30;;;;;;;5.07;2.50;;;0.10;99.90;;;;;;5057727;28;20053;-77
2021/12/03 00:09:57;;;;;;;5.13;2.38;;;0.10;99.90;;;;;;5038665;28;20115;-77
2021/12/03 00:12:23;;;;;;;6.10;2.03;;;0.10;99.90;;;;;;5011617;28;20040;-77
2021/12/03 00:14:48;;;;;;;8.02;2.35;;;0.30;99.90;;;;;;5064589;28;20106;-77
2021/12/03 00:17:14;;;;;;;8.52;2.90;;;0.10;99.90;;;;;;5044592;28;20076;-77
2021/12/03 00:19:40;;;;;;;6.40;2.95;;;0.30;99.90;;;;;;5057127;28;20058;-77
2021/12/03 00:22:06;;;;;;;9.25;3.28;;;0.40;99.90;;;;;;5047277;28;20477;-77
2021/12/03 00:24:31;;;;;;;7.63;3.03;;;0.10;99.90;;;;;;5059865;28;20098;-77
2021/12/03 00:26:57;;;;;;;9.48;3.28;;;0.10;99.90;;;;;;5043293;28;20033;-77
2021/12/03 00:29:23;;;;;;;8.50;3.35;;;0.10;99.90;;;;;;5040511;28;20037;-77
2021/12/03 00:31:48;;;;;;;9.57;3.33;;;0.20;99.90;;;;;;5077269;28;20374;-77
2021/12/03 00:34:14;;;;;;;5.25;2.97;;;0.20;99.90;;;;;;5062049;28;20037;-77
2021/12/03 00:36:40;;;;;;;9.30;3.00;;;0.20;99.90;;;;;;5045297;28;20123;-77
2021/12/03 00:39:05;;;;;;;7.10;2.30;;;0.50;99.90;;;;;;5059533;28;20086;-77
2021/12/03 00:41:36;;;;;;;7.32;2.75;;;0.50;99.90;;;;;;5024877;28;20076;-77
2021/12/03 00:44:01;;;;;;;5.07;2.65;;;0.30;99.90;;;;;;5025743;28;20487;-77
2021/12/03 00:46:27;;;;;;;9.25;3.15;;;0.30;99.90;;;;;;5028293;28;20337;-77
2021/12/03 00:48:54;;;;;;;9.52;2.95;;;0.40;99.90;;;;;;5048120;28;20048;-77
2021/12/03 00:51:22;;;;;;;5.45;2.53;;;0.40;99.90;;;;;;5022899;28;20040;-77
2021/12/03 00:53:48;;;;;;;5.28;2.60;;;0.40;99.90;;;;;;5049658;28;20392;-77
2021/12/03 00:56:15;;;;;;;7.80;2.85;;;0.50;99.90;;;;;;5046605;28;20745;-77
2021/12/03 00:58:42;;;;;;;8.95;3.40;;;0.50;99.90;;;;;;5049726;28;20174;-77
2021/12/03 01:01:08;;;;;;;10.20;3.95;;;0.60;99.90;;;;;;5024512;28;20041;-77
2021/12/03 01:03:37;;;;;;;8.30;3.97;;;0.60;99.90;;;;;;5031056;28;20090;-77
2021/12/03 01:06:03;;;;;;;10.43;3.85;;;0.60;99.90;;;;;;5024575;28;20048;-77
2021/12/03 01:08:31;;;;;;;8.43;4.13;;;0.70;99.90;;;;;;5042306;28;20081;-77
2021/12/03 01:10:57;;;;;;;9.20;3.85;;;0.70;99.90;;;;;;5048267;28;20045;-76
2021/12/03 01:13:23;;;;;;;10.15;4.60;;;0.70;99.90;;;;;;5054946;28;20036;-76
2021/12/03 01:15:49;;;;;;;10.07;4.53;;;0.70;99.90;;;;;;5014612;28;20051;-77
2021/12/03 01:18:15;;;;;;;10.75;4.63;;;0.70;99.90;;;;;;5060865;28;20036;-77
2021/12/03 01:20:43;;;;;;;10.65;5.07;;;0.70;99.90;;;;;;5045595;28;20391;-77
2021/12/03 01:23:11;;;;;;;14.68;4.82;;;0.70;99.90;;;;;;5059968;28;20076;-76
2021/12/03 01:25:37;;;;;;;10.38;4.85;;;0.70;99.90;;;;;;5026593;28;20037;-76
2021/12/03 01:28:04;;;;;;;14.43;4.95;;;0.80;99.90;;;;;;5045899;28;20393;-77
2021/12/03 01:30:31;;;;;;;11.30;4.68;;;0.80;99.90;;;;;;5047692;28;20045;-76
2021/12/03 01:32:59;;;;;;;13.77;7.63;;;0.80;99.90;;;;;;5026266;28;20067;-76
2021/12/03 01:35:25;;;;;;;13.52;5.63;;;0.80;99.90;;;;;;5045203;28;20064;-76
2021/12/03 01:37:51;;;;;;;10.32;5.82;;;0.80;99.90;;;;;;5079054;28;20043;-76
2021/12/03 01:40:19;;;;;;;9.68;5.32;;;1.30;99.90;;;;;;5012967;28;20057;-76
2021/12/03 01:42:46;;;;;;;18.35;6.68;;;0.80;99.90;;;;;;5050238;28;20055;-76
2021/12/03 01:45:18;;;;;;;11.85;5.97;;;0.90;99.90;;;;;;5021664;28;20034;-77
2021/12/03 01:47:46;;;;;;;10.45;5.85;;;1.60;99.90;;;;;;5072937;28;20048;-76
2021/12/03 01:50:14;;;;;;;13.15;4.78;;;0.90;99.90;;;;;;5053142;28;20041;-77
2021/12/03 01:52:40;;;;;;;9.35;5.95;;;0.90;99.90;;;;;;5035368;28;20091;-76
2021/12/03 01:55:09;;;;;;;10.43;4.60;;;0.80;99.90;;;;;;5027551;28;20044;-76
2021/12/03 01:57:34;;;;;;;12.35;5.22;;;0.90;99.90;;;;;;5053733;28;20443;-77
2021/12/03 02:00:01;;;;;;;9.02;4.82;;;1.00;99.90;;;;;;5047858;28;20037;-76
2021/12/03 02:02:27;;;;;;;10.77;4.88;;;1.00;99.90;;;;;;5050141;28;20080;-77
2021/12/03 02:04:57;;;;;;;12.30;5.57;;;0.80;99.90;;;;;;5036412;28;20221;-77
2021/12/03 02:07:23;;;;;;;13.07;5.53;;;0.90;99.90;;;;;;5072552;28;20381;-77
2021/12/03 02:09:48;;;;;;;10.80;5.22;;;1.00;99.90;;;;;;5040187;28;20043;-77
2021/12/03 02:12:14;;;;;;;13.80;5.47;;;0.90;99.90;;;;;;5076138;28;20439;-77
2021/12/03 02:14:40;;;;;;;10.35;5.50;;;1.20;99.90;;;;;;5061691;28;20562;-77
2021/12/03 02:17:06;;;;;;;9.98;5.10;;;1.20;99.90;;;;;;5026698;28;20527;-77
2021/12/03 02:19:34;;;;;;;11.38;5.65;;;1.10;99.90;;;;;;5026893;28;20044;-77
2021/12/03 02:22:00;;;;;;;15.00;6.40;;;1.30;99.90;;;;;;5030244;28;20051;-77
2021/12/03 02:24:26;;;;;;;14.95;6.72;;;1.50;99.90;;;;;;5043525;28;20087;-77
2021/12/03 02:26:52;;;;;;;15.30;7.75;;;1.20;99.90;;;;;;5022722;28;20044;-76
2021/12/03 02:29:18;;;;;;;11.40;7.63;;;1.30;99.90;;;;;;5046060;28;20373;-77
2021/12/03 02:31:43;;;;;;;15.80;7.43;;;2.10;99.90;;;;;;5040711;28;20037;-77
2021/12/03 02:34:09;;;;;;;16.63;8.27;;;2.30;99.90;;;;;;5043996;28;20136;-77
2021/12/03 02:36:35;;;;;;;13.52;8.80;;;1.10;99.90;;;;;;5047723;28;20045;-78
2021/12/03 02:39:01;;;;;;;14.60;9.93;;;1.30;99.90;;;;;;5039877;28;20033;-77
2021/12/03 02:41:26;;;;;;;15.18;10.35;;;1.30;99.90;;;;;;5015251;28;20152;-77
2021/12/03 02:43:53;;;;;;;20.85;11.40;;;1.20;99.90;;;;;;5080027;28;20077;-77
2021/12/03 02:46:19;;;;;;;18.35;11.05;;;1.10;99.90;;;;;;5040108;28;20041;-77
2021/12/03 02:48:44;;;;;;;16.08;11.05;;;1.30;99.90;;;;;;5055901;28;20132;-77
2021/12/03 02:51:11;;;;;;;19.10;11.13;;;1.30;99.90;;;;;;5018435;28;20041;-77
2021/12/03 02:53:37;;;;;;;21.20;13.57;;;1.20;99.90;;;;;;5038475;28;20029;-77
2021/12/03 02:56:05;;;;;;;21.25;12.93;;;1.20;99.90;;;;;;5050497;28;20123;-77
2021/12/03 02:58:31;;;;;;;24.83;13.90;;;1.10;99.90;;;;;;5034536;28;20048;-77
2021/12/03 03:00:57;;;;;;;24.98;13.70;;;1.20;99.90;;;;;;5077086;28;20387;-77
2021/12/03 03:03:23;;;;;;;25.90;15.65;;;1.30;99.90;;;;;;5039461;28;20140;-77
2021/12/03 03:05:54;;;;;;;24.50;14.60;;;1.20;99.90;;;;;;5032913;28;20467;-78
2021/12/03 03:08:20;;;;;;;22.27;14.70;;;1.90;99.90;;;;;;5071798;28;20040;-77
2021/12/03 03:10:46;;;;;;;21.52;14.75;;;2.30;99.90;;;;;;5021140;28;20037;-77
2021/12/03 03:13:12;;;;;;;19.15;13.60;;;1.20;99.90;;;;;;5078206;28;20040;-77
2021/12/03 03:15:39;;;;;;;21.60;13.23;;;1.00;99.90;;;;;;5027997;28;20045;-77
2021/12/03 03:18:17;;;;;;;23.63;13.90;;;2.40;99.90;;;;;;5061338;28;20556;-77
2021/12/03 03:20:44;;;;;;;17.75;13.00;;;1.60;99.90;;;;;;5043295;28;20044;-77
2021/12/03 03:23:12;;;;;;;19.70;12.43;;;1.20;99.90;;;;;;5007588;28;20112;-77
2021/12/03 03:25:39;;;;;;;18.17;12.07;;;1.60;99.90;;;;;;5057509;28;20091;-77
2021/12/03 03:28:05;;;;;;;22.50;13.68;;;1.20;99.90;;;;;;5022461;28;20042;-77
2021/12/03 03:30:31;;;;;;;20.25;13.95;;;1.30;99.90;;;;;;5079735;28;20048;-77
2021/12/03 03:32:58;;;;;;;22.23;14.60;;;1.30;99.90;;;;;;5015793;28;20038;-78
2021/12/03 03:35:24;;;;;;;22.13;14.55;;;1.30;99.90;;;;;;5049050;28;20143;-77
2021/12/03 03:37:50;;;;;;;22.45;13.73;;;1.20;99.90;;;;;;5029629;28;20037;-77
2021/12/03 03:40:17;;;;;;;19.33;12.75;;;1.20;99.90;;;;;;5047147;28;20052;-77
2021/12/03 03:42:43;;;;;;;18.85;13.15;;;1.40;99.90;;;;;;5068240;28;20079;-77
2021/12/03 03:45:13;;;;;;;16.33;13.02;;;1.30;99.90;;;;;;5025796;28;20041;-77
2021/12/03 03:47:39;;;;;;;19.98;13.60;;;1.10;99.90;;;;;;5029477;28;20037;-77
2021/12/03 03:50:07;;;;;;;17.80;11.60;;;1.90;99.90;;;;;;5037231;28;20048;-77
2021/12/03 03:52:35;;;;;;;20.33;13.32;;;1.00;99.90;;;;;;5058021;28;20063;-77
2021/12/03 03:55:01;;;;;;;18.38;12.85;;;1.20;99.90;;;;;;5042783;28;20118;-77
2021/12/03 03:57:26;;;;;;;19.30;13.70;;;1.00;99.90;;;;;;5061505;28;20057;-77
2021/12/03 03:59:53;;;;;;;16.83;12.02;;;2.00;99.90;;;;;;5032233;28;20068;-77
2021/12/03 04:02:19;;;;;;;21.55;12.63;;;1.10;99.90;;;;;;5045681;28;20037;-77
2021/12/03 04:04:45;;;;;;;16.67;12.45;;;1.10;99.90;;;;;;5047006;28;20045;-77
2021/12/03 04:07:11;;;;;;;19.33;12.25;;;1.10;99.90;;;;;;5044416;28;20028;-76
2021/12/03 04:09:36;;;;;;;21.40;13.18;;;1.50;99.90;;;;;;5010052;28;20041;-76
2021/12/03 04:12:02;;;;;;;21.60;13.07;;;1.10;99.90;;;;;;5033672;28;20033;-76
2021/12/03 04:14:28;;;;;;;18.10;13.30;;;1.10;99.90;;;;;;4999687;28;20037;-76
2021/12/03 04:16:54;;;;;;;19.75;14.02;;;1.80;99.90;;;;;;5061713;28;20592;-76
2021/12/03 04:19:20;;;;;;;20.05;13.65;;;1.80;99.90;;;;;;5075851;28;20065;-77
2021/12/03 04:21:46;;;;;;;17.17;12.35;;;1.70;99.90;;;;;;5034449;28;20040;-77
2021/12/03 04:24:11;;;;;;;22.52;14.75;;;1.20;99.90;;;;;;5013787;28;20128;-77
2021/12/03 04:26:37;;;;;;;18.33;14.77;;;1.00;99.90;;;;;;5048384;28;20128;-77
2021/12/03 04:29:03;;;;;;;20.10;15.50;;;1.10;99.90;;;;;;5009383;28;20505;-77
2021/12/03 04:31:29;;;;;;;19.30;13.73;;;2.50;99.90;;;;;;5036830;28;20053;-77
2021/12/03 04:33:55;;;;;;;20.77;13.48;;;1.00;99.90;;;;;;5047546;28;20080;-77
2021/12/03 04:36:21;;;;;;;22.90;15.57;;;1.10;99.90;;;;;;5042464;28;20029;-77
2021/12/03 04:38:47;;;;;;;21.55;12.77;;;1.80;99.90;;;;;;5045598;28;20048;-77
2021/12/03 04:41:13;;;;;;;19.02;12.93;;;1.30;99.90;;;;;;5062964;28;20055;-77
2021/12/03 04:43:38;;;;;;;20.13;13.93;;;1.20;99.90;;;;;;5029042;28;20056;-77
2021/12/03 04:46:04;;;;;;;23.60;12.73;;;1.10;99.90;;;;;;5022262;28;20041;-76
2021/12/03 04:48:30;;;;;;;23.90;15.13;;;1.20;99.90;;;;;;5031725;28;20140;-76
2021/12/03 04:50:56;;;;;;;19.70;14.13;;;1.10;99.90;;;;;;5026908;28;20045;-76
2021/12/03 04:53:22;;;;;;;21.30;14.48;;;1.10;99.90;;;;;;5016301;28;20121;-76
2021/12/03 04:55:49;;;;;;;23.88;14.23;;;1.10;99.90;;;;;;5052726;28;20463;-76
2021/12/03 04:58:15;;;;;;;20.83;13.75;;;1.20;99.90;;;;;;5036341;28;20095;-76
2021/12/03 05:00:47;;;;;;;21.15;14.77;;;1.60;99.90;;;;;;5020066;28;20075;-77
2021/12/03 05:03:13;;;;;;;20.98;14.68;;;1.40;99.90;;;;;;5044060;28;20064;-77
2021/12/03 05:05:44;;;;;;;18.70;14.40;;;1.10;99.90;;;;;;5042076;28;20037;-79
2021/12/03 05:08:11;;;;;;;21.00;12.23;;;1.10;99.90;;;;;;5047720;28;20037;-77
2021/12/03 05:10:42;;;;;;;17.35;11.50;;;1.00;99.90;;;;;;5068746;28;20473;-77
2021/12/03 05:13:15;;;;;;;19.73;14.52;;;1.00;99.90;;;;;;5035010;28;20037;-77
2021/12/03 05:15:42;;;;;;;18.98;12.15;;;1.10;99.90;;;;;;5050936;28;20116;-77
2021/12/03 05:18:09;;;;;;;18.35;12.00;;;1.00;99.90;;;;;;5032435;28;20041;-77
2021/12/03 05:20:35;;;;;;;18.35;11.80;;;1.00;99.90;;;;;;5045268;28;20045;-77
2021/12/03 05:23:02;;;;;;;18.77;13.00;;;1.20;99.90;;;;;;5042784;28;20048;-77
2021/12/03 05:25:30;;;;;;;17.83;12.88;;;0.90;99.90;;;;;;5038446;28;20178;-77
2021/12/03 05:27:56;;;;;;;18.52;13.98;;;1.00;99.90;;;;;;5041991;28;20546;-77
2021/12/03 05:30:23;;;;;;;15.88;12.13;;;0.90;99.90;;;;;;5059936;28;20041;-77
2021/12/03 05:32:48;;;;;;;21.40;12.98;;;1.00;99.90;;;;;;5046863;28;20037;-77
2021/12/03 05:35:14;;;;;;;18.35;13.15;;;0.90;99.90;;;;;;5079124;28;20377;-77
2021/12/03 05:37:40;;;;;;;24.52;11.80;;;1.40;99.90;;;;;;5047534;28;20034;-77
2021/12/03 05:40:09;;;;;;;16.65;12.48;;;1.10;99.90;;;;;;5048683;28;20048;-77
2021/12/03 05:42:36;;;;;;;20.13;14.07;;;1.10;99.90;;;;;;5057959;28;20053;-77
2021/12/03 05:45:03;;;;;;;15.40;10.82;;;1.20;99.90;;;;;;5012559;28;20099;-77
2021/12/03 05:47:29;;;;;;;12.10;6.85;;;1.00;99.90;;;;;;5047243;28;20059;-77
2021/12/03 05:49:55;;;;;;;16.75;12.07;;;1.00;99.90;;;;;;5035547;28;20148;-77
2021/12/03 05:52:21;;;;;;;18.50;12.38;;;1.10;99.90;;;;;;5043829;28;20087;-77
2021/12/03 05:54:46;;;;;;;16.83;11.73;;;2.10;99.90;;;;;;5040008;28;20052;-77
2021/12/03 05:57:12;;;;;;;17.95;11.88;;;2.30;99.90;;;;;;5029497;28;20307;-77
2021/12/03 05:59:38;;;;;;;15.13;11.68;;;1.30;99.90;;;;;;5029956;28;20037;-77
2021/12/03 06:02:04;;;;;;;14.90;10.85;;;1.20;99.90;;;;;;5013942;28;20040;-77
2021/12/03 06:04:30;;;;;;;19.27;12.32;;;1.30;99.90;;;;;;5044978;28;20127;-77
2021/12/03 06:06:56;;;;;;;18.00;12.13;;;1.00;99.90;;;;;;5045407;28;20048;-78
2021/12/03 06:09:22;;;;;;;16.02;9.60;;;1.30;99.90;;;;;;5048348;28;20040;-76
2021/12/03 06:11:48;;;;;;;20.00;12.32;;;1.50;99.90;;;;;;5034371;28;20037;-76
2021/12/03 06:14:14;;;;;;;18.23;10.88;;;1.70;99.90;;;;;;5052285;28;20115;-76
2021/12/03 06:16:39;;;;;;;17.45;11.85;;;2.10;99.90;;;;;;5037765;28;20051;-76
2021/12/03 06:19:05;;;;;;;16.55;10.43;;;1.20;99.90;;;;;;5037240;28;20032;-78
2021/12/03 06:21:31;;;;;;;14.60;10.80;;;1.70;99.90;;;;;;5072122;28;20067;-78
2021/12/03 06:23:57;;;;;;;17.67;12.40;;;1.60;99.90;;;;;;5065034;28;20033;-77
2021/12/03 06:26:23;;;;;;;16.65;11.45;;;1.70;99.90;;;;;;5070387;28;20449;-77
2021/12/03 06:28:48;;;;;;;18.55;12.95;;;1.60;99.90;;;;;;5039179;28;20473;-77
2021/12/03 06:31:14;;;;;;;16.70;10.60;;;1.50;99.90;;;;;;5081151;28;20049;-78
2021/12/03 06:33:40;;;;;;;20.77;11.82;;;1.70;99.90;;;;;;5058068;28;20088;-77
2021/12/03 06:36:06;;;;;;;17.02;11.80;;;2.00;99.90;;;;;;5061284;28;20459;-77
2021/12/03 06:38:33;;;;;;;17.42;11.07;;;1.50;99.90;;;;;;5073203;28;20508;-77
2021/12/03 06:41:00;;;;;;;14.20;9.77;;;1.60;99.90;;;;;;5023646;28;20142;-77
2021/12/03 06:43:26;;;;;;;19.02;11.70;;;1.70;99.90;;;;;;5076089;28;20045;-77
2021/12/03 06:45:52;;;;;;;13.40;9.55;;;1.70;99.90;;;;;;5057637;28;20413;-77
2021/12/03 06:48:18;;;;;;;17.65;11.15;;;2.00;99.90;;;;;;5055421;28;20037;-77
2021/12/03 06:50:45;;;;;;;14.35;9.50;;;1.80;99.90;;;;;;5042234;28;20549;-77
2021/12/03 06:53:15;;;;;;;16.25;10.52;;;2.10;99.90;;;;;;5065002;28;20047;-77
2021/12/03 06:58:10;;;;;;;15.20;9.25;;;1.70;99.90;;;;;;5042150;28;20045;-76
2021/12/03 07:00:36;;;;;;;17.85;10.55;;;1.80;99.90;;;;;;5051926;28;20044;-76
2021/12/03 07:03:02;;;;;;;17.58;10.23;;;2.00;99.90;;;;;;5047687;28;20059;-77
2021/12/03 07:05:27;;;;;;;11.23;7.57;;;2.50;99.90;;;;;;5070172;28;20119;-77
2021/12/03 07:07:53;;;;;;;12.10;8.75;;;;;;;;;;5090490;28;20044;-77
2021/12/03 07:10:19;;;;;;;15.68;9.15;;;1.50;99.90;;;;;;5024780;28;20049;-77
2021/12/03 07:12:45;;;;;;;14.30;9.00;;;1.50;99.90;;;;;;5042701;28;20038;-79
2021/12/03 07:15:11;;;;;;;12.82;6.78;;;1.80;99.90;;;;;;5056255;28;20037;-76
2021/12/03 07:17:37;;;;;;;12.98;8.43;;;1.90;99.90;;;;;;5024932;28;20718;-77
2021/12/03 07:20:03;;;;;;;16.95;9.07;;;1.60;99.90;;;;;;5022414;28;20033;-76
2021/12/03 07:22:30;;;;;;;16.65;9.60;;;1.60;99.90;;;;;;5042510;28;20056;-76
2021/12/03 07:24:56;;;;;;;14.57;10.02;;;2.20;99.90;;;;;;5060019;28;20037;-77
2021/12/03 07:27:23;;;;;;;13.32;8.90;;;1.70;99.90;;;;;;5025335;28;20099;-78
2021/12/03 07:29:49;;;;;;;18.33;9.70;;;1.70;99.90;;;;;;5059348;28;20033;-78
2021/12/03 07:32:20;;;;;;;16.48;9.25;;;2.50;99.90;;;;;;5061735;28;20040;-79
2021/12/03 07:34:46;;;;;;;14.90;10.02;;;1.70;99.90;;;;;;5041179;28;20480;-78
2021/12/03 07:37:13;;;;;;;15.38;8.68;;;1.80;99.90;;;;;;5051388;28;20048;-78
2021/12/03 07:39:39;;;;;;;18.02;10.10;;;2.00;99.90;;;;;;5042194;28;20033;-77
2021/12/03 07:42:06;;;;;;;14.88;9.80;;;1.70;99.90;;;;;;5043330;28;20045;-77
2021/12/03 07:44:33;;;;;;;24.55;10.20;;;1.70;99.90;;;;;;5047786;28;20398;-77
2021/12/03 07:46:59;;;;;;;20.60;10.90;;;1.70;99.90;;;;;;5046705;28;20057;-78
2021/12/03 07:49:25;;;;;;;15.98;10.30;;;1.70;99.90;;;;;;5059445;28;20122;-78
2021/12/03 07:51:51;;;;;;;15.23;9.50;;;2.30;99.90;;;;;;5070069;28;20079;-77
2021/12/03 07:54:18;;;;;;;15.80;8.98;;;1.70;99.90;;;;;;5041539;28;20076;-77
2021/12/03 07:56:44;;;;;;;12.80;8.48;;;1.80;99.90;;;;;;5042880;28;20041;-74
2021/12/03 07:59:10;;;;;;;10.07;4.63;;;1.80;99.90;;;;;;5023209;28;20041;-75
2021/12/03 08:01:35;;;;;;;17.92;10.68;;;1.80;99.90;;;;;;5021045;28;20102;-72
2021/12/03 08:04:01;;;;;;;19.15;11.77;;;2.00;99.90;;;;;;5053704;28;20063;-74
2021/12/03 08:06:27;;;;;;;19.98;10.43;;;1.90;99.90;;;;;;5024508;28;20051;-76
2021/12/03 08:08:53;;;;;;;19.88;11.55;;;1.80;99.90;;;;;;5066665;28;20044;-75
2021/12/03 08:11:19;;;;;;;20.15;11.60;;;1.80;99.90;;;;;;5037944;28;20053;-76
2021/12/03 08:13:44;;;;;;;20.95;9.73;;;1.90;99.90;;;;;;5038346;28;20465;-76
2021/12/03 08:16:10;;;;;;;19.50;10.60;;;1.90;99.90;;;;;;5041169;28;20140;-76
2021/12/03 08:18:36;;;;;;;19.45;12.88;;;1.90;99.90;;;;;;5033737;28;20037;-76
2021/12/03 08:21:04;;;;;;;20.08;11.77;;;1.80;99.90;;;;;;5050859;28;20048;-76
2021/12/03 08:23:30;;;;;;;17.70;10.80;;;1.90;99.90;;;;;;5042176;28;20060;-76
2021/12/03 08:25:56;;;;;;;18.58;10.45;;;2.50;99.90;;;;;;5025650;28;20551;-76
2021/12/03 08:28:22;;;;;;;18.13;10.32;;;1.90;99.90;;;;;;5076525;28;20131;-76
2021/12/03 08:30:48;;;;;;;15.75;9.52;;;0.50;99.90;;;;;;5060624;28;20127;-76
2021/12/03 08:33:14;;;;;;;19.98;10.95;;;1.90;99.90;;;;;;5051316;28;20409;-76
2021/12/03 08:35:40;;;;;;;19.48;11.20;;;1.90;99.90;;;;;;5037440;28;20124;-76
2021/12/03 08:38:06;;;;;;;23.98;13.60;;;1.90;99.90;;;;;;5054537;28;20408;-75
2021/12/03 08:40:32;;;;;;;21.05;11.15;;;2.00;99.90;;;;;;5035823;28;20462;-74
2021/12/03 08:42:57;;;;;;;24.60;14.07;;;2.00;99.90;;;;;;5054866;28;20637;-75
2021/12/03 08:45:24;;;;;;;22.83;12.38;;;2.00;99.90;;;;;;5038023;28;20053;-75
2021/12/03 08:47:54;;;;;;;21.33;12.57;;;2.00;99.90;;;;;;5034829;28;20044;-75
2021/12/03 08:50:29;;;;;;;25.42;12.77;;;2.00;99.90;;;;;;5052048;28;20350;-75
2021/12/03 08:55:42;;;;;;;25.33;14.20;;;2.10;99.90;;;;;;5048673;28;20045;-76
2021/12/03 08:58:10;;;;;;;30.52;16.88;;;3.00;99.90;;;;;;5057848;28;20049;-76
2021/12/03 09:00:36;;;;;;;26.23;12.45;;;3.20;99.90;;;;;;5044230;28;20075;-76
2021/12/03 09:03:04;;;;;;;29.35;17.63;;;2.10;99.90;;;;;;5059820;28;20044;-77
2021/12/03 09:05:31;;;;;;;33.78;19.73;;;2.40;99.90;;;;;;5026391;28;20045;-76
2021/12/03 09:07:57;;;;;;;23.23;12.52;;;2.30;99.90;;;;;;5033880;28;20362;-76
2021/12/03 09:10:24;;;;;;;29.40;17.77;;;2.40;99.90;;;;;;5026553;28;20378;-76
2021/12/03 09:12:51;;;;;;;30.75;18.58;;;2.50;99.90;;;;;;5051957;28;20032;-77
2021/12/03 09:15:21;;;;;;;23.58;12.93;;;2.80;99.90;;;;;;5057728;28;20060;-76
2021/12/03 09:18:15;;;;;;;32.00;17.65;;;3.00;99.90;;;;;;5030349;28;20037;-76
2021/12/03 09:23:46;;;;;;;37.90;21.00;;;3.00;99.90;;;;;;5024682;28;20041;-76
2021/12/03 09:26:14;;;;;;;32.50;18.30;;;2.30;99.90;;;;;;5052048;28;20502;-79
2021/12/03 09:28:45;;;;;;;37.63;18.75;;;2.40;99.90;;;;;;5015050;28;20517;-78
2021/12/03 09:31:16;;;;;;;33.63;19.50;;;3.30;99.90;;;;;;5049511;28;20041;-79
2021/12/03 09:33:45;;;;;;;37.15;16.52;;;2.30;99.90;;;;;;5079950;28;20408;-79
2021/12/03 09:36:11;;;;;;;25.38;13.05;;;2.30;99.90;;;;;;5031334;28;20035;-76
2021/12/03 09:38:37;;;;;;;34.55;17.05;;;2.90;99.90;;;;;;5042534;28;20037;-75
2021/12/03 09:41:17;;;;;;;36.47;18.50;;;2.30;99.90;;;;;;5046082;28;20060;-75
2021/12/03 09:43:46;;;;;;;28.65;15.73;;;2.50;99.90;;;;;;5087289;28;20053;-75
2021/12/03 09:46:20;;;;;;;32.55;13.88;;;3.10;99.90;;;;;;5038290;28;20063;-75
2021/12/03 09:51:24;;;;;;;28.98;15.75;;;2.50;99.90;;;;;;5059944;28;20053;-75
2021/12/03 09:56:16;;;;;;;34.90;17.77;;;2.60;99.90;;;;;;5059563;28;20064;-78
2021/12/03 10:01:58;;;;;;;34.63;18.40;;;2.50;99.90;;;;;;5036512;28;20139;-84
2021/12/03 10:15:08;;;;;;;44.05;19.35;;;2.80;99.90;;;;;;5039937;28;20048;-76
2021/12/03 10:17:46;;;;;;;33.75;17.33;;;2.90;99.90;;;;;;5045219;28;20040;-79
2021/12/03 10:20:23;;;;;;;31.95;17.50;;;2.90;99.90;;;;;;5026591;28;20049;-79
2021/12/03 10:42:13;;;;;;;34.03;15.63;;;3.10;99.90;;;;;;5046067;28;20468;-78
2021/12/03 10:58:28;;;;;;;26.15;11.55;;;3.20;99.90;;;;;;5049715;28;20049;-79
2021/12/03 12:23:32;;;;;;;10.73;4.40;;;3.90;99.90;;;;;;5061728;28;20052;-78
2021/12/03 12:46:18;;;;;;;8.52;3.85;;;2.80;99.90;;;;;;5040210;28;20045;-77
2021/12/03 13:06:39;;;;;;;8.07;4.00;;;2.90;99.90;;;;;;5043488;28;20044;-79
2021/12/03 14:39:10;;;;;;;11.23;4.53;;;3.40;99.90;;;;;;5076929;28;20386;-78
2021/12/03 14:52:42;;;;;;;8.38;3.40;;;3.60;99.90;;;;;;5048836;28;20093;-79
2021/12/03 14:55:09;;;;;;;13.85;5.03;;;3.60;99.90;;;;;;5034614;28;20091;-79
2021/12/03 14:57:45;;;;;;;8.90;2.83;;;3.60;99.90;;;;;;5053724;28;20460;-78
2021/12/03 15:05:52;;;;;;;10.57;5.40;;;3.70;99.90;;;;;;5050405;28;20068;-79
2021/12/03 15:08:24;;;;;;;11.23;4.68;;;3.70;99.90;;;;;;5060458;28;20040;-79
2021/12/03 15:11:02;;;;;;;7.07;4.75;;;3.90;99.90;;;;;;5026785;28;20106;-79
2021/12/03 15:32:06;;;;;;;7.75;5.10;;;4.40;99.90;;;;;;5019821;28;20041;-79
2021/12/03 15:37:17;;;;;;;7.53;3.95;;;5.00;99.90;;;;;;5022370;28;20048;-79
2021/12/03 15:58:36;;;;;;;12.77;6.70;;;4.00;99.90;;;;;;5031688;28;20411;-79
2021/12/03 16:04:14;;;;;;;12.57;7.18;;;4.00;99.90;;;;;;5005193;28;20045;-79
2021/12/03 16:15:20;;;;;;;15.40;7.95;;;5.40;99.90;;;;;;5010040;28;20088;-79
2021/12/03 16:47:35;;;;;;;14.15;8.57;;;4.00;99.90;;;;;;4995409;28;20065;-79
2021/12/03 16:50:35;;;;;;;11.85;8.60;;;4.00;99.90;;;;;;5046782;28;20055;-79
2021/12/03 16:52:51;;;;;;;12.07;9.23;;;4.00;99.90;;;;;;5033679;28;20057;-79
2021/12/03 16:55:18;;;;;;;13.75;8.80;;;4.00;99.90;;;;;;5038501;28;20033;-79
2021/12/03 16:57:47;;;;;;;13.45;7.47;;;4.90;99.90;;;;;;5043357;28;20039;-79
2021/12/03 17:00:26;;;;;;;10.15;7.38;;;4.40;99.90;;;;;;5030390;28;20052;-79
2021/12/03 17:03:09;;;;;;;13.48;10.00;;;4.00;99.90;;;;;;5041864;28;20433;-79
2021/12/03 17:49:51;;;;;;;16.88;12.35;;;4.00;99.90;;;;;;5059118;28;20045;-79
2021/12/03 17:56:48;;;;;;;17.30;11.77;;;4.10;99.90;;;;;;5053242;28;20102;-79
2021/12/03 17:59:25;;;;;;;20.52;14.63;;;4.10;99.90;;;;;;5046135;28;20123;-79
2021/12/03 18:04:43;;;;;;;19.45;12.73;;;4.10;99.90;;;;;;5067821;28;20052;-78
2021/12/03 18:09:58;;;;;;;17.25;11.48;;;4.10;99.90;;;;;;5046937;28;20110;-79
2021/12/03 18:58:04;;;;;;;27.20;17.10;;;5.70;99.90;;;;;;5011240;28;20038;-81
2021/12/03 19:00:32;;;;;;;;;;;4.30;99.90;;;;;;5061313;28;20040;-79
2021/12/03 19:03:04;;;;;;;25.55;16.42;;;4.30;99.90;;;;;;5023500;28;19917;-77
2021/12/03 19:05:56;;;;;;;26.67;15.73;;;4.30;99.90;;;;;;5048316;28;20099;-77
2021/12/03 19:11:53;;;;;;;30.27;20.95;;;4.30;99.90;;;;;;4956460;28;20042;-78
2021/12/03 19:14:15;;;;;;;24.30;14.60;;;4.30;99.90;;;;;;4987359;28;20133;-78
2021/12/03 19:16:41;;;;;;;31.08;19.42;;;4.30;99.90;;;;;;4970938;28;20559;-78
2021/12/03 19:19:09;;;;;;;27.98;17.77;;;4.70;99.90;;;;;;4975983;28;20065;-78
2021/12/03 19:21:43;;;;;;;28.17;19.35;;;4.40;99.90;;;;;;4988384;28;20041;-78
2021/12/03 19:24:10;;;;;;;26.90;16.88;;;4.40;99.90;;;;;;5003792;28;20133;-78
2021/12/03 19:26:44;;;;;;;29.73;16.60;;;4.30;99.90;;;;;;4998769;28;20049;-78
2021/12/03 19:29:15;;;;;;;30.08;19.23;;;4.30;99.90;;;;;;5037096;28;20042;-78
2021/12/03 19:31:43;;;;;;;33.40;20.40;;;4.40;99.90;;;;;;5031873;28;20041;-78
2021/12/03 19:34:09;;;;;;;26.42;18.08;;;4.40;99.90;;;;;;5029437;28;20045;-79
2021/12/03 19:36:40;;;;;;;27.35;18.58;;;4.30;99.90;;;;;;5020698;28;20388;-78
2021/12/03 19:39:08;;;;;;;23.13;12.80;;;4.40;99.90;;;;;;5025426;28;20045;-78
2021/12/03 19:44:23;;;;;;;27.85;16.52;;;4.40;99.90;;;;;;5011562;28;20045;-77
2021/12/03 19:46:51;;;;;;;31.60;19.20;;;4.40;99.90;;;;;;5020809;28;20489;-77
2021/12/03 19:49:38;;;;;;;26.60;15.52;;;4.40;99.90;;;;;;5020872;28;20120;-77
2021/12/03 19:53:10;;;;;;;34.22;18.80;;;4.40;99.90;;;;;;5005960;28;20045;-78
2021/12/03 19:54:58;;;;;;;37.47;18.10;;;4.40;99.90;;;;;;4985758;28;20044;-78
2021/12/03 19:57:25;;;;;;;28.83;20.13;;;4.40;99.90;;;;;;5026916;28;20037;-78
2021/12/03 19:59:51;;;;;;;20.15;12.48;;;4.40;99.90;;;;;;4978339;28;20037;-77
2021/12/03 20:02:17;;;;;;;30.88;20.80;;;4.40;99.90;;;;;;5005439;28;20034;-77
2021/12/03 20:04:44;;;;;;;32.05;20.58;;;4.40;99.90;;;;;;5041952;28;20072;-77
2021/12/03 20:07:09;;;;;;;28.35;19.30;;;5.10;99.90;;;;;;5041021;28;20055;-78
2021/12/03 20:09:47;;;;;;;32.75;21.52;;;4.40;99.90;;;;;;4991021;28;20041;-78
2021/12/03 20:12:18;;;;;;;28.83;17.23;;;4.80;99.90;;;;;;5024876;28;20087;-78
2021/12/03 20:14:47;;;;;;;33.53;22.40;;;4.50;99.90;;;;;;5008460;28;20042;-78
2021/12/03 20:17:21;;;;;;;29.15;17.65;;;4.40;99.90;;;;;;5000677;28;20161;-78
2021/12/03 20:19:51;;;;;;;29.90;18.23;;;5.20;99.90;;;;;;5046195;28;20037;-78
2021/12/03 20:22:23;;;;;;;29.80;17.90;;;4.40;99.90;;;;;;5039186;28;20425;-78
2021/12/03 20:27:39;;;;;;;34.10;20.60;;;5.20;99.90;;;;;;5020622;28;20176;-78
2021/12/03 20:30:10;;;;;;;30.02;18.63;;;4.50;99.90;;;;;;5023758;28;20045;-78
2021/12/03 20:32:38;;;;;;;32.88;20.48;;;5.30;99.90;;;;;;4988780;28;20099;-78
2021/12/03 20:37:50;;;;;;;32.13;18.92;;;4.50;99.90;;;;;;5009881;28;20072;-77
2021/12/03 20:40:19;;;;;;;32.15;18.20;;;4.50;99.90;;;;;;4990639;28;20168;-77
2021/12/03 20:48:13;;;;;;;21.90;13.55;;;4.50;99.90;;;;;;5001160;28;20053;-78
2021/12/03 20:53:27;;;;;;;31.55;18.42;;;4.40;99.90;;;;;;5005908;28;20052;-78